Terminal Aerodrome Forecast
Issued by NWS

Home | Current Version | Previous Version | Text Only | Print | Product List | Glossary On
Versions: 1 2 3 4 5 6 7 8 9 10 11 12
547
FTUS42 KMLB 212320
TAFISM
TAF
KISM 212320Z 2200/2224 06009KT P6SM FEW035 FEW070 SCT250
     FM220200 03004KT P6SM FEW025 SCT250
     FM221600 05008KT P6SM VCSH SCT035
     FM221900 06011KT P6SM VCTS BKN040CB BKN070=

USA.gov is the U.S. government's official web portal to all federal, state and local government web resources and services.